ADDS METAR Data INFO
IDs: Format: Raw Decoded Include TAF

Data at: 1014 UTC 12 Dec 2017

PAOM 121007Z AUTO 36003KT 10SM BKN025 OVC033 M05/M08 A2944 RMK AO2 T10501078 TSNO
PAOM 120953Z AUTO 01004KT 10SM SCT023 OVC033 M05/M08 A2944 RMK AO2 SLP968 T10501078 TSNO
PAOM 120951Z AUTO 01004KT 10SM SCT023 BKN034 OVC048 M05/M08 A2943 RMK TSNO VIA AUTODIAL
PAOM 120853Z AUTO 36005KT 10SM OVC019 M04/M08 A2943 RMK AO2 SLP967 T10441078 410331078 51009 TSNO
PAOM 120753Z 05003KT 10SM OVC023 M05/M07 A2943 RMK AO2 SLP966 T10501067
PAOM 120653Z AUTO 03003KT 10SM OVC024 M05/M07 A2942 RMK AO2 SLP964 T10501067 TSNO
PAOM 120553Z AUTO 00000KT 10SM OVC027 M04/M06 A2940 RMK SLP957 T10441061 11044 21067 53013 TSNO VIA AUTODIAL
PAOM 120453Z 35006KT 10SM OVC028 M05/M07 A2938 RMK AO2 SLP950 T10501072
PAOM 120353Z 34004KT 10SM OVC025 M05/M07 A2937 RMK AO2 SLP947 T10501067
PAOM 120303Z 32003KT 10SM BKN027 BKN033 OVC050 M06/M07 A2937 RMK AO2 T10611072
PAOM 120253Z 01003KT 10SM SCT027 BKN033 OVC065 M06/M08 A2937 RMK AO2 SLP944 T10611078 53013
PAOM 120153Z 29004KT 10SM BKN037 OVC065 M05/M07 A2935 RMK AO2 SLP938 T10501067
PAOM 120126Z 00000KT 10SM FEW029 BKN034 OVC065 M04/M06 A2934 RMK AO2 T10441061
PAOM 120053Z 11004KT 10SM OVC029 M04/M06 A2933 RMK AO2 SLP933 T10441061
PAOM 112353Z 33011KT 10SM OVC033 M04/M06 A2933 RMK AO2 SLP931 60004 T10441061 11033 21044 53007
PAOM 112324Z 33010KT 9SM OVC031 M04/M06 A2932 RMK AO2 T10441061
PAOM 112253Z 34007KT 10SM OVC029 M04/M06 A2932 RMK AO2 SNE41 SLP928 P0000 T10441056
PAOM 112250Z 34007KT 10SM OVC029 M04/M06 A2932 RMK AO2 SNE41 P0000
PAOM 112231Z 34008KT 5SM -SN BR OVC031 M04/M06 A2931 RMK AO2 P0000 T10391056
PAOM 112218Z 36006G16KT 3SM -SN BR OVC029 M04/M05 A2931 RMK AO2 P0000 T10391050
PAOM 112210Z 02011KT 1 1/2SM -SN BR OVC027 M04/M05 A2931 RMK AO2 P0000 T10391050
PAOM 112149Z 36005KT 3/4SM R28/5500VP6000FT -SN BR VV015 M04/M04 A2931 RMK AO2 SLP925 P0003 T10391044
PAOM 112148Z 01005KT 3/4SM R28/5500VP6000FT -SN BR VV015 M04/M04 A2931 RMK AO2 P0003
PAOM 112142Z 36005KT 1SM R28/5500V6000FT -SN BR VV014 M04/M04 A2931 RMK AO2 VIS 3/4V1 1/2 P0002 T10391044
PAOM 112053Z 01008KT 1 1/4SM -SN BR OVC022 M04/M05 A2929 RMK AO2 SNB12 SLP920 P0001 60001 T10441050 53024
PAOM 112032Z 36010KT 3SM -SN BR BKN023 OVC028 M04/M06 A2928 RMK AO2 SNB12 P0000 T10391056
PAOM 111953Z 36010KT 10SM SCT033 BKN048 OVC055 M04/M06 A2927 RMK AO2 SLP911 T10391061
PAOM 111917Z 36012KT 10SM FEW022 OVC030 M04/M06 A2925 RMK AO2 T10391061
PAOM 111902Z 36012KT 10SM FEW022 BKN028 OVC044 M04/M07 A2925 RMK AO2 T10391067
PAOM 111853Z 35012KT 10SM SCT022 BKN030 OVC044 M04/M07 A2924 RMK AO2 SNB23E37 SLP902 P0000 T10391067
PAOM 111846Z 35013KT 10SM SCT030 OVC044 M04/M06 A2924 RMK AO2 SNB23E37 P0000 T10391061
PAOM 111836Z 35014KT 9SM -SN BKN028 BKN037 OVC044 M04/M06 A2924 RMK AO2 SNB23 P0000 T10391061
PAOM 111753Z 35017KT 10SM OVC036 M04/M06 A2922 RMK AO2 SLP896 60001 T10391061 11039 21067 53002
PAOM 111653Z 35015KT 10SM OVC033 M04/M07 A2921 RMK AO2 SLP892 P0001 T10441067 $
PAOM 111553Z AUTO 35017KT 10SM OVC035 M04/M07 A2921 RMK AO2 UPB39E42SNB12E39 SLP893 P0000 T10441067 TSNO $
PAOM 111453Z AUTO 35019KT 8SM FEW040 OVC049 M06/M07 A2922 RMK PK WND 36029/1428 UPE06SNB06E29 SLP894 P0000 60000 T10561072 58024 TSNO $ VIA AUTODIAL
PAOM 111440Z AUTO 36018KT 5SM BLSN BR OVC047 M06/M07 A2922 RMK AO2 PK WND 36029/1428 UPE06SNB06E29 P0000 T10561072 TSNO $
PAOM 111416Z AUTO 35024KT 2SM -SN BR OVC032 M06/M08 A2923 RMK AO2 PK WND 35028/1415 UPE06SNB06 P0000 T10611078 TSNO $
PAOM 111353Z AUTO 35020KT 8SM UP OVC046 M06/M08 A2924 RMK UPB14SNE14 SLP903 P0000 T10611078 TSNO $ VIA AUTODIAL
PAOM 111253Z AUTO 35018KT 4SM -SN BR SCT032 OVC043 M06/M07 A2927 RMK AO2 SLP911 P0000 T10611072 TSNO $
PAOM 111251Z AUTO 35015KT 3SM -SN BR SCT032 OVC042 M06/M07 A2927 RMK P0000 TSNO $ VIA AUTODIAL
PAOM 111245Z AUTO 35016KT 2 1/2SM -SN BR FEW030 OVC042 M06/M07 A2927 RMK AO2 P0000 T10611072 TSNO $
PAOM 111220Z AUTO 35015KT 4SM -SN BR OVC030 M06/M08 A2928 RMK AO2 P0000 T10611078 TSNO $
PAOM 111153Z AUTO 36018KT 2 1/2SM -SN BR BKN025 OVC032 M07/M08 A2929 RMK AO2 PK WND 01027/1142 SLP918 P0000 60000 T10671083 11050 21078 56025 TSNO $
PAOM 111151Z AUTO 36018G27KT 2SM -SN BR BKN027 OVC032 M06/M08 A2929 RMK PK WND 01027/1142 P0000 TSNO $ VIA AUTODIAL
PAOM 111143Z AUTO 02021G27KT 2SM -SN BR OVC034 M06/M08 A2929 RMK AO2 PK WND 01027/1142 P0000 T10561078 TSNO $
PAOM 111053Z AUTO 01020G23KT 8SM -SN BKN033 OVC043 M07/M09 A2931 RMK AO2 UPB05E09SNE05B09E21B52 SLP925 P0000 T10671089 TSNO $
PAOM 110953Z AUTO 36015KT 4SM -SN BR OVC037 M07/M09 A2933 RMK AO2 UPE34SNB39 SLP932 P0000 T10721094 TSNO $
PAOM 110853Z AUTO 35016KT 6SM UP BR BKN042 BKN050 OVC055 M07/M09 A2936 RMK AO2 PK WND 35026/0835 UPB37SNE37 SLP943 P0000 60000 T10721089 410561122 58026 TSNO $
PAOM 110835Z AUTO 35021KT 4SM -SN BKN040 BKN055 OVC085 M07/M10 A2937 RMK AO2 PK WND 35026/0835 P0000 T10721100 TSNO $
PAOM 110828Z AUTO 35020KT 2 1/2SM -SN BKN040 OVC085 M07/M11 A2937 RMK AO2 P0000 T10721106 TSNO $
PAOM 110819Z AUTO 35019KT 1 3/4SM -SN BR OVC040 M07/M08 A2938 RMK AO2 P0000 T10721083 TSNO $
PAOM 110812Z AUTO 35019KT 2SM -SN BR OVC038 M07/M09 A2938 RMK AO2 P0000 T10721089 TSNO $
PAOM 110753Z AUTO 01011KT 5SM -SN OVC040 M07/M09 A2940 RMK SNB31 SLP956 P0000 T10671094 TSNO $ VIA AUTODIAL
PAOM 110653Z 01007KT 10SM OVC046 M07/M11 A2944 RMK AO2 SLP969 T10671106 $
PAOM 110553Z 34011KT 10SM OVC065 M07/M11 A2944 RMK AO2 SLP969 T10721106 11056 21072 58026 $
PAOM 110453Z 01014KT 10SM OVC075 M06/M11 A2947 RMK AO2 SLP978 T10611111 $
PAOM 110353Z AUTO 35012KT 10SM OVC055 M07/M11 A2949 RMK PK WND 35026/0317 SLP987 T10671111 TSNO $ VIA AUTODIAL
PAOM 110253Z 35023KT 9SM BKN060 OVC075 M07/M10 A2952 RMK PK WND 35027/0253 SLP995 T10671100 58024 $ VIA AUTODIAL
PAOM 110153Z 01012KT 10SM BKN055 M07/M11 A2955 RMK AO2 SLP006 T10721106 $
PAOM 110053Z 36010KT 10SM BKN110 M07/M11 A2957 RMK AO2 SLP015 T10671106 $
PAOM 102353Z 35008KT 10SM FEW070 FEW090 OVC100 M07/M11 A2959 RMK AO2 SLP019 T10721111 11067 21111 58020 $
PAOM 102253Z 32008KT 10SM SCT080 OVC095 M07/M12 A2961 RMK AO2 SLP027 T10721117 $